West Cornwall, Connecticut
Current Conditions -  °F | °C
As of 4:50 PM on Wednesday 22 Oct 2014 (Local Time) from KOXC Reporting Station
Light Rain Light Rain  
Wind Chill: 50°   Ceiling: 800
Heat Index: 50°   Visibility: 4mi
Dew Point: 43°   Wind: 17mph
Humidity: 76%   Direction: 40°NE
Pressure: 29.85"   Gusts: 29mph
Location:  41.87°N, 73.36°W
Report Text: KOXC 222050Z 04015G25KT 4SM -RA BR BKN008 OVC016 10/06 A2985
Loading
Personal Weather Stations






























Interactive Weather Map
Tropical Storm Tracking
New forecast layout! Learn more

10-Day Weather Forecast

Advertisements
Track Severe Weather on mobile